Oslo, MN

02:25 AM CDT on September 16, 2014 (GMT -0500)
Grafton Municipal | Change Station
CLOSE
Current Station
Airport
Location: Grafton,
Elevation: 823 ft
Nearby Weather Stations

Elev 823 ft 48.40 °N, 97.37 °W | Updated 10 minutes ago

Oop
Oop
45 °F
Feels Like 40 °F
N
9
Wind Veranderlik Wind from SW

Vandag
High -- | Low -- °F
--% Chance of Precip.
Yesterday
High -- | Low -- °F
Precip. -- in
7:06 AM 7:38 PM
Waning Gibbous, 48% visible
Druk 30.03 in
Sigbaarheid 10.0 myle
Wolke Few 8500 ft
Wind afkoel 40 °F
Dou-punt 39 °F
Humiditeit 81%
Rainfall 0.00 in
Snow Depth Not available.
UV 0 out of 12
Pollen 3.40 out of 12
Air Quality Not available.
Flu Activity Not available.
METAR KGAF 160715Z AUTO 22008KT 10SM FEW085 07/04 A3003 RMK AO2

More Conditions Fewer Conditions

Druk 30.03 in
Sigbaarheid 10.0 myle
Wolke Few 8500 ft
Wind afkoel 40 °F
Dou-punt 39 °F
Humiditeit 81%
Rainfall 0.00 in
Snow Depth Not available.
UV 0 out of 12
Pollen 3.40 out of 12
Air Quality Not available.
Flu Activity Not available.
METAR KGAF 160715Z AUTO 22008KT 10SM FEW085 07/04 A3003 RMK AO2

More Conditions Fewer Conditions

10-Day Weather Forecast

Almanac

Astronomy

Sep. 16, 2014 Rise Set
Ware Tyd 7:06 AM CDT 7:38 PM CDT
Civil Twilight 6:35 AM CDT 8:09 PM CDT
Nautical Twilight 5:58 AM CDT 8:46 PM CDT
Astronomical Twilight 5:19 AM CDT 9:25 PM CDT
Maan Geen Maan opkoms 3:23 PM CDT
Length Of Visible Light 13h 34m
Length of Day
12h 31m
Tomorrow will be 3m 28s shorter.
Waning Gibbous, 48% of the Moon is Illuminated
Vandag
Waning Gibbous
Sep 24
New
Oct 1
Eerste Kwartier
Oct 8
Vol Maan
Oct 15
Laaste kwarter

Today's Extremes

State Highs State Lows

Community

WunderPhotos

Upload Photos

1,753,699 photos uploaded!

Nearby

Snow Depth

Station Depth Elevation
No new snow has been reported.

Earthquake Activity

Stad Distance Mag. Time & Date
No recent earthquake activity has been reported nearby.
Minimum magnitude displayed is 2.5.

Coastal Water Temperatures

Plek Temperatuur
No Stations Reporting

Nearby Weather Stations